Time;durP1;ratioP1;P1;durP2;ratioP2;P2;SDS_P1;SDS_P2;PMS_P1;PMS_P2;Temp;Humidity;BMP_temperature;BMP_pressure;BME280_temperature;BME280_humidity;BME280_pressure;Samples;Min_cycle;Max_cycle;Signal;HPM_P1;HPM_P2
2023/07/25 00:01:01;;;;;;;15.15;10.65;;;;;;;20.14;100.00;99793.25;10411264;28;20037;-80
2023/07/25 00:06:03;;;;;;;18.73;11.63;;;;;;;20.05;100.00;99799.06;10410122;28;20069;-79
2023/07/25 00:11:04;;;;;;;14.07;11.07;;;;;;;19.93;100.00;99786.72;10411487;28;20502;-79
2023/07/25 00:16:04;;;;;;;15.80;10.98;;;;;;;20.00;100.00;99807.03;10411123;28;20114;-79
2023/07/25 00:21:05;;;;;;;14.38;11.95;;;;;;;19.65;100.00;99752.50;10409193;28;20492;-80
2023/07/25 00:26:06;;;;;;;13.30;9.98;;;;;;;19.96;100.00;99797.81;10410058;28;20415;-80
2023/07/25 00:31:07;;;;;;;18.00;10.15;;;;;;;19.82;100.00;99799.97;10408950;28;20041;-79
2023/07/25 00:36:08;;;;;;;33.78;10.98;;;;;;;19.66;100.00;99786.50;10410422;28;20042;-79
2023/07/25 00:41:09;;;;;;;27.80;13.30;;;;;;;19.42;100.00;99748.84;10409271;28;20045;-80
2023/07/25 00:46:10;;;;;;;24.20;12.68;;;;;;;19.69;100.00;99796.78;10410365;28;20041;-79
2023/07/25 00:51:11;;;;;;;23.75;12.70;;;;;;;19.77;100.00;99815.25;10408947;28;20052;-78
2023/07/25 00:56:13;;;;;;;18.90;11.80;;;;;;;19.78;100.00;99819.59;10408152;28;20041;-79
2023/07/25 01:01:13;;;;;;;25.08;12.13;;;;;;;19.80;100.00;99823.69;10409761;28;20044;-80
2023/07/25 01:06:17;;;;;;;19.15;11.50;;;;;;;19.66;100.00;99813.44;10408433;28;20056;-79
2023/07/25 01:11:17;;;;;;;22.02;11.35;;;;;;;19.32;100.00;99737.84;10408483;28;20041;-79
2023/07/25 01:16:23;;;;;;;40.03;12.40;;;;;;;19.67;100.00;99818.56;10409231;28;20082;-79
2023/07/25 01:21:24;;;;;;;20.98;11.00;;;;;;;19.55;100.00;99799.72;10408695;28;20033;-80
2023/07/25 01:26:24;;;;;;;17.05;11.65;;;;;;;18.75;100.00;99683.97;10406685;28;20041;-79
2023/07/25 01:31:25;;;;;;;31.35;10.57;;;;;;;18.98;100.00;99737.72;10408306;28;20037;-78
2023/07/25 01:36:26;;;;;;;15.43;11.57;;;;;;;19.42;100.00;99807.28;10407447;28;20041;-79
2023/07/25 01:41:26;;;;;;;18.67;11.48;;;;;;;19.51;100.00;99833.59;10407885;28;20527;-80
2023/07/25 01:46:27;;;;;;;34.83;11.98;;;;;;;18.97;100.00;99741.50;10407241;28;20045;-80
2023/07/25 01:51:28;;;;;;;15.18;11.70;;;;;;;19.51;100.00;99847.06;10407779;28;20076;-79
2023/07/25 01:56:29;;;;;;;23.80;10.48;;;;;;;19.38;100.00;99831.16;10407735;28;20049;-79
2023/07/25 02:01:30;;;;;;;50.50;12.38;;;;;;;18.90;100.00;99770.38;10407284;28;20038;-79
2023/07/25 02:06:30;;;;;;;22.60;10.88;;;;;;;19.39;100.00;99854.38;10405497;28;20058;-79
2023/07/25 02:11:31;;;;;;;20.10;10.90;;;;;;;19.46;100.00;99859.63;10407284;28;20497;-79
2023/07/25 02:16:36;;;;;;;17.63;11.20;;;;;;;19.58;100.00;99868.47;10407512;28;20061;-78
2023/07/25 02:21:37;;;;;;;12.25;10.85;;;;;;;19.74;100.00;99867.78;10406858;28;20092;-77
2023/07/25 02:26:38;;;;;;;14.55;10.93;;;;;;;19.84;100.00;99875.22;10406121;28;20061;-77
2023/07/25 02:31:38;;;;;;;13.88;10.95;;;;;;;19.99;100.00;99882.78;10404875;28;20050;-77
2023/07/25 02:36:39;;;;;;;13.48;10.55;;;;;;;19.73;100.00;99812.22;10406450;28;20049;-78
2023/07/25 02:41:40;;;;;;;12.20;9.13;;;;;;;20.39;100.00;99892.66;10406427;28;20040;-78
2023/07/25 02:46:41;;;;;;;11.68;8.85;;;;;;;20.84;100.00;99897.19;10410078;28;20041;-80
2023/07/25 02:51:41;;;;;;;14.77;8.32;;;;;;;21.36;100.00;99916.66;10413327;28;20496;-79
2023/07/25 02:56:42;;;;;;;12.07;7.40;;;;;;;22.07;100.00;99902.34;10412598;28;20052;-80
2023/07/25 03:01:43;;;;;;;7.85;6.40;;;;;;;22.52;100.00;99830.78;10413136;28;20041;-80
2023/07/25 03:06:44;;;;;;;7.30;6.03;;;;;;;23.46;98.20;99853.59;10413344;28;20087;-79
2023/07/25 03:11:44;;;;;;;7.55;5.28;;;;;;;24.54;94.59;99893.47;10412740;28;20065;-80
2023/07/25 03:16:45;;;;;;;8.45;5.28;;;;;;;25.25;90.12;99922.50;10412908;28;20061;-80
2023/07/25 03:21:46;;;;;;;15.20;5.68;;;;;;;26.08;87.10;99929.28;10408095;28;20044;-82
2023/07/25 03:26:46;;;;;;;6.95;5.18;;;;;;;26.60;82.96;99925.16;10411826;28;20042;-78
2023/07/25 03:31:47;;;;;;;7.85;4.85;;;;;;;26.82;80.89;99883.81;10412269;28;20493;-78
2023/07/25 03:36:48;;;;;;;7.40;4.57;;;;;;;27.53;78.59;99938.72;10411283;28;20040;-80
2023/07/25 03:41:49;;;;;;;7.88;5.22;;;;;;;27.50;75.98;99869.19;10411154;28;20062;-79
2023/07/25 03:46:49;;;;;;;7.00;5.30;;;;;;;28.50;74.10;99933.94;10411826;28;20044;-78
2023/07/25 03:51:50;;;;;;;5.57;4.78;;;;;;;28.93;72.74;99956.47;10407901;28;20106;-78
2023/07/25 03:56:51;;;;;;;8.15;5.20;;;;;;;29.01;71.30;99957.69;10381934;28;20046;-79
2023/07/25 04:01:52;;;;;;;12.20;5.00;;;;;;;29.15;69.83;99942.16;10389423;28;20129;-81
2023/07/25 04:06:53;;;;;;;5.38;4.53;;;;;;;29.31;68.19;99912.56;10396130;28;20511;-78
2023/07/25 04:11:53;;;;;;;9.35;4.88;;;;;;;29.85;67.55;99954.75;10400318;28;20053;-83
2023/07/25 04:16:54;;;;;;;7.90;4.82;;;;;;;30.24;65.85;99958.88;10389092;28;20062;-80
2023/07/25 04:21:55;;;;;;;6.68;5.00;;;;;;;30.45;64.91;99945.50;10397915;28;20046;-79
2023/07/25 04:26:56;;;;;;;9.07;4.90;;;;;;;30.65;63.11;99953.25;10395138;28;20042;-85
2023/07/25 04:31:57;;;;;;;5.25;3.83;;;;;;;30.83;60.32;99945.16;10387959;28;20048;-81
2023/07/25 04:36:58;;;;;;;7.20;4.97;;;;;;;30.84;59.94;99944.88;10397137;28;20041;-82
2023/07/25 04:41:58;;;;;;;8.07;5.72;;;;;;;30.56;60.42;99970.75;10408973;28;20511;-83
2023/07/25 04:46:59;;;;;;;5.65;4.55;;;;;;;30.21;59.96;99904.69;10409140;28;20044;-72
2023/07/25 04:52:00;;;;;;;7.15;4.85;;;;;;;30.58;60.35;99957.56;10410096;28;20408;-73
2023/07/25 04:57:00;;;;;;;8.38;5.53;;;;;;;30.41;59.76;99972.72;10408616;28;20045;-73
2023/07/25 05:02:01;;;;;;;11.63;6.28;;;;;;;30.34;60.25;99977.81;10409175;28;20045;-73
2023/07/25 05:07:02;;;;;;;8.13;6.20;;;;;;;29.98;59.94;99978.59;10408129;28;20045;-72
2023/07/25 05:12:04;;;;;;;6.65;4.93;;;;;;;29.07;60.96;99904.53;10408590;28;20041;-73
2023/07/25 05:17:04;;;;;;;8.15;5.60;;;;;;;28.92;62.00;99960.28;10409762;28;20065;-73
2023/07/25 05:22:05;;;;;;;7.72;5.70;;;;;;;27.90;63.78;99896.25;10408005;28;20128;-73
2023/07/25 05:27:06;;;;;;;7.15;5.05;;;;;;;27.91;65.25;99971.59;10408344;28;20069;-72
2023/07/25 05:32:07;;;;;;;7.32;4.95;;;;;;;27.91;66.45;99974.31;10408387;28;20128;-72
2023/07/25 05:37:08;;;;;;;8.00;4.25;;;;;;;27.79;66.70;99969.31;10407845;28;20558;-72
2023/07/25 05:42:08;;;;;;;6.80;4.28;;;;;;;27.64;67.28;99948.44;10407506;28;20064;-73
2023/07/25 05:47:09;;;;;;;9.40;4.30;;;;;;;27.90;67.15;99970.78;10407245;28;20045;-72
2023/07/25 05:52:10;;;;;;;7.18;4.32;;;;;;;28.03;67.05;99980.19;10407828;28;20507;-72
2023/07/25 05:57:11;;;;;;;8.18;4.18;;;;;;;27.93;67.39;99962.00;10408298;28;20038;-73
2023/07/25 06:02:12;;;;;;;6.40;4.60;;;;;;;27.96;67.03;99969.59;10408014;28;20143;-72
2023/07/25 06:07:14;;;;;;;6.95;4.05;;;;;;;27.96;66.33;99988.72;10407333;28;20040;-72
2023/07/25 06:12:16;;;;;;;5.90;4.05;;;;;;;27.79;67.23;99906.53;10407022;28;20519;-73
2023/07/25 06:17:17;;;;;;;5.97;3.88;;;;;;;27.95;66.72;99964.44;10407017;28;20049;-72
2023/07/25 06:22:18;;;;;;;6.38;3.50;;;;;;;27.71;67.44;99978.09;10412774;28;20058;-73
2023/07/25 06:27:18;;;;;;;4.22;3.10;;;;;;;27.81;65.29;99975.25;10414289;28;20094;-73
2023/07/25 06:32:19;;;;;;;7.15;2.92;;;;;;;28.08;64.52;99965.66;10413890;28;20049;-72
2023/07/25 06:37:20;;;;;;;6.85;3.47;;;;;;;28.21;63.22;99973.94;10413324;28;20034;-73
2023/07/25 06:42:20;;;;;;;5.60;2.85;;;;;;;28.19;62.55;99975.34;10412734;28;20047;-73
2023/07/25 06:47:21;;;;;;;4.50;2.85;;;;;;;27.49;62.67;99831.28;10413514;28;20037;-73
2023/07/25 06:52:22;;;;;;;8.07;3.15;;;;;;;27.87;61.15;99880.47;10412697;28;20049;-73
2023/07/25 06:57:23;;;;;;;6.80;3.08;;;;;;;28.38;61.10;99945.28;10413281;28;20047;-73
2023/07/25 07:02:23;;;;;;;6.63;2.90;;;;;;;28.48;59.71;99939.69;10412731;28;20030;-73
2023/07/25 07:07:24;;;;;;;4.80;2.63;;;;;;;28.33;58.45;99887.97;10412869;28;20069;-73
2023/07/25 07:12:25;;;;;;;8.98;2.97;;;;;;;28.74;58.80;99942.81;10411924;28;20561;-74
2023/07/25 07:17:25;;;;;;;7.10;2.95;;;;;;;28.94;58.83;99944.41;10412846;28;20038;-74
2023/07/25 07:22:26;;;;;;;4.07;2.60;;;;;;;28.79;58.05;99934.53;10412805;28;20161;-74
2023/07/25 07:27:27;;;;;;;5.32;2.90;;;;;;;29.01;57.97;99941.28;10411697;28;20496;-74
2023/07/25 07:32:27;;;;;;;4.60;2.70;;;;;;;28.99;57.54;99941.59;10410771;28;20053;-73
2023/07/25 07:37:28;;;;;;;5.22;2.53;;;;;;;29.10;55.26;99931.28;10411907;28;20405;-73
2023/07/25 07:42:29;;;;;;;3.22;2.50;;;;;;;28.78;54.91;99874.69;10412188;28;20042;-73
2023/07/25 07:47:30;;;;;;;5.03;2.80;;;;;;;29.45;54.34;99939.94;10411563;28;20409;-74
2023/07/25 07:52:30;;;;;;;4.90;2.75;;;;;;;29.48;54.42;99929.19;10411550;28;20042;-74
2023/07/25 07:57:31;;;;;;;8.25;2.97;;;;;;;29.60;53.97;99941.56;10411313;28;20038;-75
2023/07/25 08:02:32;;;;;;;4.00;2.60;;;;;;;28.82;52.83;99821.06;10410955;28;20029;-72
2023/07/25 08:07:32;;;;;;;4.78;2.70;;;;;;;29.73;52.17;99944.31;10411005;28;20045;-74
2023/07/25 08:12:34;;;;;;;5.45;2.58;;;;;;;29.78;52.06;99929.72;10410101;28;20082;-73
2023/07/25 08:17:35;;;;;;;3.65;2.75;;;;;;;29.70;51.87;99878.41;10410834;28;20077;-73
2023/07/25 08:22:35;;;;;;;5.97;2.60;;;;;;;29.88;51.19;99882.13;10410499;28;20132;-74
2023/07/25 08:27:36;;;;;;;11.70;3.25;;;;;;;30.37;49.90;99949.81;10410813;28;20038;-75
2023/07/25 08:32:37;;;;;;;8.38;3.20;;;;;;;30.38;49.87;99947.88;10410223;28;20038;-74
2023/07/25 08:37:37;;;;;;;6.95;2.97;;;;;;;29.89;49.53;99868.16;10410120;28;20042;-74
2023/07/25 08:42:42;;;;;;;3.40;2.10;;;;;;;30.43;48.19;99934.88;10408662;28;20084;-73
2023/07/25 08:47:45;;;;;;;3.53;2.35;;;;;;;30.53;49.10;99939.28;10409640;28;20492;-73
2023/07/25 08:52:51;;;;;;;4.22;2.53;;;;;;;30.56;48.18;99929.63;10408998;28;20049;-74
2023/07/25 08:57:52;;;;;;;7.70;2.53;;;;;;;30.65;48.85;99914.06;10408972;28;20125;-74
2023/07/25 09:02:54;;;;;;;6.88;2.50;;;;;;;30.67;48.11;99912.63;10409897;28;20067;-73
2023/07/25 09:07:58;;;;;;;2.78;2.13;;;;;;;30.85;48.06;99910.03;10409167;28;20042;-73
2023/07/25 09:12:59;;;;;;;7.07;2.40;;;;;;;30.51;47.46;99814.63;10409333;28;20501;-73
2023/07/25 09:18:00;;;;;;;3.83;2.00;;;;;;;31.15;47.07;99902.91;10405837;28;20038;-74
2023/07/25 09:23:03;;;;;;;4.40;2.40;;;;;;;31.02;46.34;99899.16;10407759;28;20394;-72
2023/07/25 09:28:05;;;;;;;;;;;;;;;31.47;47.43;99918.25;10396557;28;20034;-75
2023/07/25 09:33:06;;;;;;;4.50;1.92;;;;;;;31.09;46.07;99854.78;10386898;28;20376;-72
2023/07/25 09:38:07;;;;;;;4.20;2.38;;;;;;;30.97;45.77;99827.16;10386338;28;20042;-74
2023/07/25 09:43:08;;;;;;;3.67;2.30;;;;;;;31.01;46.37;99853.63;10386452;28;20450;-75
2023/07/25 09:48:08;;;;;;;5.18;2.45;;;;;;;30.33;46.47;99820.00;10385912;28;20125;-75
2023/07/25 09:53:10;;;;;;;6.28;2.30;;;;;;;30.83;46.03;99866.44;10385427;28;20037;-74
2023/07/25 09:58:12;;;;;;;4.17;2.33;;;;;;;31.07;45.26;99890.75;10385991;28;20034;-73
2023/07/25 10:03:13;;;;;;;2.83;2.10;;;;;;;30.67;45.23;99815.88;10387881;28;20291;-74
2023/07/25 10:08:16;;;;;;;5.03;2.30;;;;;;;31.21;44.30;99896.16;10390117;28;20081;-75
2023/07/25 10:13:17;;;;;;;4.07;2.17;;;;;;;31.25;44.32;99891.63;10391259;28;20061;-75
2023/07/25 10:18:25;;;;;;;2.97;1.90;;;;;;;31.60;43.39;99900.81;10383208;28;20566;-75
2023/07/25 10:23:31;;;;;;;7.47;2.67;;;;;;;31.65;43.24;99883.41;10385498;28;20128;-75
2023/07/25 10:28:31;;;;;;;7.00;2.50;;;;;;;31.64;43.64;99881.75;10384109;28;20091;-75
2023/07/25 10:33:36;;;;;;;7.03;2.30;;;;;;;31.06;45.00;99858.16;10389323;28;20056;-76
2023/07/25 10:38:40;;;;;;;3.00;2.30;;;;;;;31.54;44.01;99865.59;10389715;28;20099;-75
2023/07/25 10:43:55;;;;;;;4.80;2.20;;;;;;;31.63;42.96;99805.22;10384731;28;20551;-75
2023/07/25 10:49:00;;;;;;;4.13;2.40;;;;;;;32.05;41.84;99856.63;10383219;28;20102;-75
2023/07/25 10:54:12;;;;;;;4.43;2.38;;;;;;;32.32;40.92;99853.88;10384250;28;20045;-74
2023/07/25 10:59:13;;;;;;;6.53;2.25;;;;;;;32.31;41.46;99857.75;10384535;28;20034;-74
2023/07/25 11:04:31;;;;;;;3.70;2.17;;;;;;;32.16;40.93;99868.13;10390480;28;20053;-74
2023/07/25 11:09:32;;;;;;;3.72;2.03;;;;;;;30.97;41.79;99791.50;10403621;28;20076;-75
2023/07/25 11:14:40;;;;;;;8.55;2.30;;;;;;;31.28;41.85;99852.59;10412264;28;20061;-74
2023/07/25 11:19:41;;;;;;;4.05;2.35;;;;;;;31.45;41.81;99856.53;10412633;28;20045;-74
2023/07/25 11:24:47;;;;;;;2.90;2.10;;;;;;;31.83;41.31;99851.28;10412450;28;20041;-74
2023/07/25 11:29:47;;;;;;;2.70;1.92;;;;;;;31.58;40.72;99734.78;10411163;28;20482;-74
2023/07/25 11:34:49;;;;;;;3.00;2.25;;;;;;;32.51;39.41;99838.66;10411502;28;20045;-74
2023/07/25 11:39:50;;;;;;;4.45;2.42;;;;;;;32.70;39.34;99832.00;10411361;28;20094;-74
2023/07/25 11:44:51;;;;;;;3.63;2.17;;;;;;;32.62;39.40;99819.06;10411217;28;20382;-74
2023/07/25 11:49:52;;;;;;;5.45;2.30;;;;;;;32.84;38.90;99845.50;10406904;28;20033;-73
2023/07/25 11:54:53;;;;;;;7.47;2.30;;;;;;;32.62;38.90;99849.31;10391080;28;20045;-75
2023/07/25 11:59:55;;;;;;;5.53;2.25;;;;;;;32.73;39.09;99854.13;10391104;28;20082;-74
2023/07/25 12:04:56;;;;;;;11.55;2.45;;;;;;;32.80;39.33;99853.63;10393418;28;20869;-73
2023/07/25 12:09:58;;;;;;;5.78;2.00;;;;;;;33.03;38.70;99859.72;10396486;28;20557;-73
2023/07/25 12:15:00;;;;;;;;;;;;;;;33.32;38.70;99866.38;10397774;28;20065;-74
2023/07/25 12:20:01;;;;;;;8.13;2.40;;;;;;;33.10;37.91;99848.19;10396513;28;19928;-73
2023/07/25 12:25:06;;;;;;;3.33;2.08;;;;;;;32.99;37.65;99860.69;10387706;28;20411;-74
2023/07/25 12:30:07;;;;;;;3.10;2.20;;;;;;;32.46;37.72;99777.56;10394276;28;20120;-74
2023/07/25 12:35:10;;;;;;;9.70;2.25;;;;;;;32.79;37.30;99854.78;10390660;28;20046;-73
2023/07/25 12:40:11;;;;;;;3.17;2.08;;;;;;;32.92;37.62;99855.69;10396098;28;20082;-74
2023/07/25 12:45:12;;;;;;;4.78;2.00;;;;;;;32.14;37.32;99735.72;10394202;28;20067;-73
2023/07/25 12:50:13;;;;;;;6.60;2.30;;;;;;;32.89;38.33;99839.84;10393465;28;20044;-75
2023/07/25 12:55:14;;;;;;;3.63;1.90;;;;;;;32.86;37.67;99837.75;10393295;28;20106;-74
2023/07/25 13:00:15;;;;;;;12.25;2.50;;;;;;;32.78;38.55;99838.56;10388708;28;20034;-76
2023/07/25 13:05:16;;;;;;;7.50;2.20;;;;;;;32.73;39.15;99847.84;10392698;28;20086;-73
2023/07/25 13:10:17;;;;;;;5.22;2.30;;;;;;;32.67;39.08;99827.94;10392018;28;20050;-73
2023/07/25 13:15:17;;;;;;;6.78;2.20;;;;;;;32.78;39.33;99839.38;10389376;28;20404;-76
2023/07/25 13:20:18;;;;;;;4.80;2.10;;;;;;;32.63;39.51;99843.47;10387733;28;20052;-75
2023/07/25 13:25:19;;;;;;;13.45;2.58;;;;;;;32.42;39.89;99848.03;10398381;28;20046;-73
2023/07/25 13:30:20;;;;;;;5.00;2.55;;;;;;;32.43;40.10;99838.66;10407126;28;20118;-74
2023/07/25 13:35:21;;;;;;;38.08;4.00;;;;;;;32.21;39.68;99765.44;10407893;28;20118;-73
2023/07/25 13:40:22;;;;;;;9.32;2.53;;;;;;;32.61;39.50;99831.19;10397036;28;20041;-73
2023/07/25 13:45:24;;;;;;;6.07;2.10;;;;;;;32.53;39.05;99830.09;10386189;28;20129;-75
2023/07/25 13:50:26;;;;;;;3.88;2.13;;;;;;;32.23;38.42;99777.72;10397042;28;20496;-74
2023/07/25 13:55:26;;;;;;;3.90;2.42;;;;;;;32.45;37.97;99831.72;10407592;28;20515;-73
2023/07/25 14:00:27;;;;;;;2.80;2.00;;;;;;;32.49;37.80;99829.94;10406718;28;20044;-74
2023/07/25 14:05:28;;;;;;;3.42;2.17;;;;;;;32.55;37.74;99838.00;10405766;28;20095;-75
2023/07/25 14:10:29;;;;;;;5.15;2.15;;;;;;;32.65;37.41;99838.47;10406873;28;20051;-74
2023/07/25 14:15:31;;;;;;;4.53;2.20;;;;;;;32.08;37.55;99785.69;10428041;28;20061;-73
2023/07/25 14:20:32;;;;;;;30.73;4.00;;;;;;;32.31;38.41;99827.50;10384008;28;20064;-73
2023/07/25 14:25:33;;;;;;;4.15;2.45;;;;;;;32.21;38.56;99825.91;10386152;28;20136;-74
2023/07/25 14:30:34;;;;;;;8.43;2.70;;;;;;;31.97;39.22;99818.16;10384300;28;20058;-74
2023/07/25 14:35:35;;;;;;;9.05;3.17;;;;;;;31.92;40.00;99843.88;10385433;28;20102;-74
2023/07/25 14:40:36;;;;;;;18.85;3.17;;;;;;;31.73;40.90;99835.91;10390162;28;20557;-76
2023/07/25 14:45:36;;;;;;;12.95;2.70;;;;;;;31.29;41.06;99824.03;10394004;28;20401;-74
2023/07/25 14:50:39;;;;;;;6.57;2.40;;;;;;;31.30;40.88;99841.31;10407405;28;20042;-73
2023/07/25 14:55:40;;;;;;;21.33;3.63;;;;;;;31.13;42.09;99850.28;10413380;28;20045;-73
2023/07/25 15:00:41;;;;;;;5.70;2.20;;;;;;;30.65;42.16;99779.72;10413359;28;20041;-74
2023/07/25 15:05:42;;;;;;;18.83;3.20;;;;;;;30.87;42.71;99828.22;10413150;28;20041;-73
2023/07/25 15:10:43;;;;;;;5.13;2.50;;;;;;;30.80;43.13;99852.56;10412467;28;20048;-74
2023/07/25 15:15:45;;;;;;;14.00;2.95;;;;;;;30.62;43.10;99835.97;10412758;28;20064;-73
2023/07/25 15:20:46;;;;;;;7.53;2.60;;;;;;;30.50;43.04;99848.66;10412710;28;20069;-73
2023/07/25 15:25:47;;;;;;;5.25;2.50;;;;;;;30.44;43.31;99870.69;10411574;28;20539;-74
2023/07/25 15:30:48;;;;;;;8.10;2.65;;;;;;;30.23;43.57;99853.94;10412870;28;20128;-74
2023/07/25 15:35:49;;;;;;;12.52;2.90;;;;;;;30.25;44.39;99892.81;10412003;28;20088;-74
2023/07/25 15:40:50;;;;;;;12.63;2.70;;;;;;;30.09;44.71;99893.44;10411366;28;20120;-73
2023/07/25 15:45:51;;;;;;;13.93;3.45;;;;;;;29.89;45.17;99887.31;10411961;28;20073;-74
2023/07/25 15:50:52;;;;;;;9.35;2.65;;;;;;;29.66;45.74;99870.03;10411748;28;20476;-74
2023/07/25 15:55:52;;;;;;;8.48;2.70;;;;;;;29.57;46.27;99894.53;10410770;28;20047;-74
2023/07/25 16:00:53;;;;;;;15.00;3.03;;;;;;;29.39;46.08;99891.91;10410732;28;20041;-74
2023/07/25 16:05:54;;;;;;;16.50;3.28;;;;;;;29.12;46.86;99885.31;10411618;28;20045;-74
2023/07/25 16:10:55;;;;;;;11.60;3.22;;;;;;;29.00;46.96;99887.72;10411237;28;20037;-73
2023/07/25 16:15:56;;;;;;;31.48;4.53;;;;;;;28.84;47.29;99890.72;10411014;28;20057;-73
2023/07/25 16:20:57;;;;;;;21.48;3.88;;;;;;;27.97;48.26;99784.78;10410141;28;20041;-74
2023/07/25 16:25:58;;;;;;;11.32;3.33;;;;;;;28.37;48.27;99862.50;10410620;28;20128;-73
2023/07/25 16:30:58;;;;;;;25.65;4.50;;;;;;;27.93;49.42;99832.88;10409841;28;20041;-73
2023/07/25 16:35:59;;;;;;;90.72;8.38;;;;;;;27.92;51.95;99885.88;10408608;28;20048;-73
2023/07/25 16:41:01;;;;;;;71.72;7.68;;;;;;;27.49;53.61;99883.13;10409070;28;20168;-73
2023/07/25 16:46:02;;;;;;;101.07;8.80;;;;;;;27.19;55.18;99892.47;10409244;28;20640;-74
2023/07/25 16:51:03;;;;;;;90.75;7.93;;;;;;;26.88;56.39;99898.19;10408985;28;20033;-73
2023/07/25 16:56:04;;;;;;;49.65;5.82;;;;;;;26.66;57.48;99925.94;10408708;28;20068;-73
2023/07/25 17:01:05;;;;;;;37.25;5.93;;;;;;;26.31;58.19;99925.06;10406774;28;20045;-76
2023/07/25 17:06:06;;;;;;;24.45;5.15;;;;;;;26.03;60.01;99929.31;10406696;28;20046;-75
2023/07/25 17:11:11;;;;;;;42.92;7.97;;;;;;;25.58;61.92;99903.94;10406990;28;20428;-75
2023/07/25 17:16:12;;;;;;;73.05;12.93;;;;;;;25.38;63.22;99901.28;10409144;28;20058;-75
2023/07/25 17:21:13;;;;;;;44.17;8.68;;;;;;;25.28;63.92;99918.44;10408536;28;20051;-75
2023/07/25 17:26:13;;;;;;;28.73;8.55;;;;;;;25.16;65.01;99931.50;10408505;28;20044;-76
2023/07/25 17:31:14;;;;;;;31.73;8.20;;;;;;;24.66;64.79;99876.91;10408397;28;20126;-76
2023/07/25 17:36:15;;;;;;;22.52;7.68;;;;;;;24.86;65.64;99935.03;10407526;28;20132;-75
2023/07/25 17:41:16;;;;;;;24.55;9.38;;;;;;;24.77;66.34;99937.50;10405480;28;20519;-75
2023/07/25 17:46:17;;;;;;;23.27;8.95;;;;;;;24.56;68.01;99926.63;10407330;28;20037;-75
2023/07/25 17:51:19;;;;;;;15.63;7.55;;;;;;;24.36;68.80;99948.28;10407278;28;20536;-76
2023/07/25 17:56:19;;;;;;;13.68;6.78;;;;;;;24.27;69.84;99934.41;10407227;28;20033;-76
2023/07/25 18:01:35;;;;;;;13.27;5.47;;;;;;;24.19;72.74;99964.78;10406843;28;20037;-74
2023/07/25 18:06:35;;;;;;;11.20;4.53;;;;;;;23.89;71.38;99951.94;10409543;28;20053;-75
2023/07/25 18:11:36;;;;;;;14.45;5.13;;;;;;;23.88;72.51;99963.88;10406775;28;20034;-76
2023/07/25 18:16:37;;;;;;;11.73;5.07;;;;;;;23.78;73.13;99969.25;10406124;28;20054;-76
2023/07/25 18:21:39;;;;;;;14.70;5.15;;;;;;;23.66;73.83;99970.28;10406364;28;20098;-75
2023/07/25 18:26:42;;;;;;;17.33;5.18;;;;;;;23.49;73.89;99961.50;10406639;28;20045;-74
2023/07/25 18:31:43;;;;;;;11.05;4.63;;;;;;;22.99;74.57;99901.31;10394030;28;21053;-76
2023/07/25 18:36:44;;;;;;;14.32;4.45;;;;;;;;;;10406743;28;20052;-75
2023/07/25 18:41:45;;;;;;;11.75;4.40;;;;;;;23.38;76.03;99985.00;10406214;28;20037;-75
2023/07/25 18:46:45;;;;;;;10.30;4.40;;;;;;;23.35;76.57;99987.44;10406899;28;20445;-75
2023/07/25 18:51:46;;;;;;;10.50;5.63;;;;;;;22.83;76.29;99931.22;10406342;28;20439;-75
2023/07/25 18:56:47;;;;;;;18.35;6.97;;;;;;;23.08;76.49;99977.50;10406142;28;20045;-75
2023/07/25 19:01:48;;;;;;;15.65;7.35;;;;;;;23.05;76.46;99972.59;10405345;28;20044;-75
2023/07/25 19:06:49;;;;;;;24.42;9.57;;;;;;;23.08;76.92;99977.50;10405227;28;20064;-75
2023/07/25 19:11:50;;;;;;;18.67;9.05;;;;;;;23.23;77.20;100009.31;10406558;28;20096;-76
2023/07/25 19:16:51;;;;;;;16.42;9.00;;;;;;;23.24;77.87;100003.63;10405940;28;20061;-76
2023/07/25 19:21:52;;;;;;;16.05;7.85;;;;;;;22.65;77.98;99906.16;10406043;28;20049;-75
2023/07/25 19:26:53;;;;;;;10.88;5.13;;;;;;;23.26;76.67;99978.97;10406277;28;20439;-74
2023/07/25 19:31:54;;;;;;;5.75;4.45;;;;;;;23.27;75.82;99947.25;10410978;28;20067;-76
2023/07/25 19:36:54;;;;;;;7.70;3.90;;;;;;;23.66;75.26;99962.13;10411028;28;20098;-74
2023/07/25 19:41:55;;;;;;;5.63;3.33;;;;;;;23.96;74.77;99974.25;10411450;28;20554;-75
2023/07/25 19:46:57;;;;;;;5.05;3.10;;;;;;;23.96;74.10;99963.38;10411705;28;20049;-75
2023/07/25 19:51:58;;;;;;;4.05;3.35;;;;;;;24.22;73.72;99987.88;10412498;28;20107;-74
2023/07/25 19:57:01;;;;;;;4.75;3.70;;;;;;;24.23;73.85;99989.50;10411968;28;20080;-74
2023/07/25 20:02:02;;;;;;;6.57;3.47;;;;;;;24.30;73.47;99987.38;10411443;28;20077;-75
2023/07/25 20:07:03;;;;;;;5.68;3.10;;;;;;;23.84;73.14;99909.34;10411105;28;20077;-75
2023/07/25 20:12:04;;;;;;;4.10;3.10;;;;;;;24.17;73.13;99977.00;10409719;28;20070;-74
2023/07/25 20:17:05;;;;;;;5.28;2.75;;;;;;;24.14;73.37;99976.47;10411537;28;20061;-76
2023/07/25 20:22:06;;;;;;;4.85;3.10;;;;;;;23.86;73.56;99920.75;10410459;28;20037;-75
2023/07/25 20:27:06;;;;;;;3.75;2.80;;;;;;;24.02;73.50;99965.03;10410346;28;20052;-75
2023/07/25 20:32:08;;;;;;;3.97;2.70;;;;;;;23.27;73.19;99852.41;10410512;28;20045;-75
2023/07/25 20:37:09;;;;;;;3.65;3.08;;;;;;;24.04;73.31;99979.13;10409896;28;20041;-75
2023/07/25 20:42:10;;;;;;;4.05;2.78;;;;;;;23.99;73.47;99983.72;10409350;28;20425;-74
2023/07/25 20:47:10;;;;;;;8.20;3.35;;;;;;;23.59;73.83;99923.59;10410452;28;20050;-75
2023/07/25 20:52:11;;;;;;;5.68;2.92;;;;;;;23.84;73.96;99968.19;10409246;28;20493;-74
2023/07/25 20:57:12;;;;;;;5.35;3.20;;;;;;;23.79;73.79;99968.19;10407891;28;20041;-75
2023/07/25 21:02:13;;;;;;;3.92;2.80;;;;;;;23.82;73.89;99973.09;10408807;28;20041;-75
2023/07/25 21:07:14;;;;;;;4.40;3.00;;;;;;;23.76;74.18;99960.59;10408123;28;20121;-75
2023/07/25 21:12:14;;;;;;;4.72;3.13;;;;;;;23.73;74.01;99967.34;10409526;28;20528;-74
2023/07/25 21:17:16;;;;;;;3.92;2.65;;;;;;;23.52;73.60;99939.28;10409489;28;20068;-74
2023/07/25 21:22:17;;;;;;;3.33;2.40;;;;;;;23.65;73.44;99965.09;10408396;28;20045;-74
2023/07/25 21:27:19;;;;;;;3.55;2.45;;;;;;;23.47;73.05;99928.41;10407901;28;20098;-75
2023/07/25 21:32:20;;;;;;;7.55;2.60;;;;;;;23.47;73.53;99936.53;10407884;28;20141;-76
2023/07/25 21:37:21;;;;;;;4.22;2.60;;;;;;;23.18;73.05;99896.28;10407662;28;20068;-75
2023/07/25 21:42:22;;;;;;;3.75;2.60;;;;;;;23.56;73.31;99961.25;10408997;28;20037;-75
2023/07/25 21:47:23;;;;;;;3.97;2.60;;;;;;;23.12;73.03;99891.06;10406942;28;20087;-75
2023/07/25 21:52:23;;;;;;;3.58;2.78;;;;;;;23.43;72.64;99944.38;10406650;28;20038;-74
2023/07/25 21:57:25;;;;;;;4.90;2.72;;;;;;;23.54;72.61;99972.34;10406110;28;20045;-76
2023/07/25 22:02:26;;;;;;;3.28;2.40;;;;;;;23.51;72.79;99974.78;10407516;28;20048;-76
2023/07/25 22:07:26;;;;;;;3.90;2.80;;;;;;;23.06;72.92;99902.97;10407456;28;20052;-76
2023/07/25 22:12:27;;;;;;;4.85;2.78;;;;;;;23.35;73.43;99971.97;10407734;28;20058;-76
2023/07/25 22:17:28;;;;;;;4.57;2.88;;;;;;;22.78;73.37;99889.47;10406755;28;20513;-75
2023/07/25 22:22:29;;;;;;;6.30;2.90;;;;;;;23.03;73.95;99942.22;10406692;28;20045;-75
2023/07/25 22:27:30;;;;;;;4.80;2.60;;;;;;;23.14;74.31;99962.91;10406571;28;20111;-75
2023/07/25 22:32:31;;;;;;;4.40;2.78;;;;;;;22.68;74.30;99902.94;10407488;28;20174;-76
2023/07/25 22:37:32;;;;;;;3.45;2.72;;;;;;;23.02;74.28;99968.50;10405429;28;20194;-74
2023/07/25 22:42:33;;;;;;;3.92;3.00;;;;;;;22.93;74.56;99969.22;10406722;28;20038;-75
2023/07/25 22:47:33;;;;;;;4.80;2.58;;;;;;;22.69;74.50;99937.06;10406769;28;20042;-75
2023/07/25 22:52:34;;;;;;;4.88;2.80;;;;;;;22.75;74.49;99968.53;10405867;28;20094;-75
2023/07/25 22:57:35;;;;;;;6.07;3.08;;;;;;;22.26;74.83;99900.97;10406084;28;20041;-74
2023/07/25 23:02:36;;;;;;;7.75;3.15;;;;;;;22.49;75.52;99937.69;10408043;28;20049;-75
2023/07/25 23:07:37;;;;;;;5.18;3.20;;;;;;;22.56;75.65;99964.56;10413278;28;20066;-75
2023/07/25 23:12:38;;;;;;;6.03;2.78;;;;;;;22.55;76.18;99966.47;10412714;28;20485;-76